createdAt,value
2023-02-08T00:01:22.759Z,101348.59
2023-02-08T00:03:54.656Z,101351.41
2023-02-08T00:06:22.500Z,101349.84
2023-02-08T00:08:49.985Z,101350.91
2023-02-08T00:11:17.803Z,101354.28
2023-02-08T00:13:45.294Z,101352.28
2023-02-08T00:16:14.941Z,101364.06
2023-02-08T00:18:42.741Z,101367.84
2023-02-08T00:21:12.904Z,101367.69
2023-02-08T00:23:40.685Z,101366.59
2023-02-08T00:26:09.123Z,101362.97
2023-02-08T00:28:37.391Z,101364.03
2023-02-08T00:31:06.020Z,101368.88
2023-02-08T00:33:33.756Z,101366.53
2023-02-08T00:36:03.341Z,101372.81
2023-02-08T00:38:31.450Z,101374.97
2023-02-08T00:40:58.938Z,101379.41
2023-02-08T00:43:26.652Z,101376.84
2023-02-08T00:45:58.519Z,101385.81
2023-02-08T00:48:27.926Z,101374.81
2023-02-08T00:51:21.538Z,101383.38
2023-02-08T00:53:50.553Z,101378.34
2023-02-08T00:56:18.250Z,101373.44
2023-02-08T00:58:46.455Z,101377.06
2023-02-08T01:01:14.385Z,101377.91
2023-02-08T01:03:44.073Z,101377.63
2023-02-08T01:06:18.315Z,101375.19
2023-02-08T01:08:46.117Z,101376.94
2023-02-08T01:11:20.054Z,101377.13
2023-02-08T01:13:50.848Z,101373.34
2023-02-08T01:16:27.827Z,101370.53
2023-02-08T01:18:58.216Z,101369.28
2023-02-08T01:21:35.444Z,101368.69
2023-02-08T01:24:06.800Z,101369.22
2023-02-08T01:26:34.526Z,101366.94
2023-02-08T01:29:02.329Z,101363.03
2023-02-08T01:31:34.879Z,101366.94
2023-02-08T01:34:03.833Z,101372.09
2023-02-08T01:36:32.945Z,101363.88
2023-02-08T01:39:01.451Z,101365.00
2023-02-08T01:41:33.559Z,101360.59
2023-02-08T01:44:12.575Z,101369.03
2023-02-08T01:46:46.532Z,101369.63
2023-02-08T01:49:29.517Z,101370.28
2023-02-08T01:52:14.971Z,101376.47
2023-02-08T01:54:56.619Z,101382.31
2023-02-08T01:57:25.710Z,101377.75
2023-02-08T02:00:24.327Z,101370.59
2023-02-08T02:02:55.714Z,101382.59
2023-02-08T02:05:30.449Z,101383.03
2023-02-08T02:08:01.090Z,101385.88
2023-02-08T02:10:32.449Z,101386.53
2023-02-08T02:13:08.560Z,101383.44
2023-02-08T02:15:36.474Z,101387.50
2023-02-08T02:18:07.341Z,101385.50
2023-02-08T02:20:58.798Z,101386.94
2023-02-08T02:24:03.060Z,101391.53
2023-02-08T02:27:08.500Z,101393.41
2023-02-08T02:30:33.015Z,101400.81
2023-02-08T02:33:29.873Z,101394.81
2023-02-08T02:36:32.669Z,101395.63
2023-02-08T02:39:27.521Z,101402.47
2023-02-08T02:42:30.898Z,101404.97
2023-02-08T02:45:13.449Z,101407.78
2023-02-08T02:48:00.421Z,101407.78
2023-02-08T02:50:44.827Z,101417.91
2023-02-08T02:53:53.199Z,101426.56
2023-02-08T02:56:32.384Z,101424.53
2023-02-08T02:59:06.398Z,101435.69
2023-02-08T03:01:34.397Z,101431.97
2023-02-08T03:04:32.567Z,101437.84
2023-02-08T03:07:05.468Z,101440.69
2023-02-08T03:10:10.060Z,101440.00
2023-02-08T03:12:58.431Z,101439.16
2023-02-08T03:15:51.929Z,101445.59
2023-02-08T03:18:34.540Z,101446.09
2023-02-08T03:21:42.406Z,101454.34
2023-02-08T03:24:23.486Z,101465.84
2023-02-08T03:27:32.359Z,101466.28
2023-02-08T03:30:33.292Z,101468.88
2023-02-08T03:33:25.517Z,101471.47
2023-02-08T03:36:23.110Z,101472.31
2023-02-08T03:38:51.975Z,101471.03
2023-02-08T03:41:29.611Z,101471.25
2023-02-08T03:44:09.675Z,101480.28
2023-02-08T03:46:55.557Z,101480.53
2023-02-08T03:49:29.680Z,101482.50
2023-02-08T03:52:01.816Z,101493.47
2023-02-08T03:54:37.030Z,101488.16
2023-02-08T03:57:27.494Z,101489.38
2023-02-08T04:00:09.310Z,101483.34
2023-02-08T04:03:02.056Z,101485.59
2023-02-08T04:05:30.246Z,101484.03
2023-02-08T04:07:57.878Z,101485.44
2023-02-08T04:10:25.348Z,101490.22
2023-02-08T04:12:53.315Z,101500.22
2023-02-08T04:15:22.068Z,101488.78
2023-02-08T04:17:49.540Z,101491.25
2023-02-08T04:20:17.114Z,101499.13
2023-02-08T04:22:44.654Z,101485.00
2023-02-08T04:25:12.181Z,101487.06
2023-02-08T04:27:39.683Z,101494.72
2023-02-08T04:30:07.518Z,101501.44
2023-02-08T04:32:35.092Z,101495.66
2023-02-08T04:35:02.699Z,101493.84
2023-02-08T04:37:30.091Z,101496.22
2023-02-08T04:39:57.582Z,101510.00
2023-02-08T04:42:25.097Z,101513.69
2023-02-08T04:44:52.560Z,101514.69
2023-02-08T04:47:20.054Z,101522.78
2023-02-08T04:49:47.499Z,101522.94
2023-02-08T04:52:15.042Z,101521.56
2023-02-08T04:54:42.453Z,101519.91
2023-02-08T04:57:14.409Z,101526.59
2023-02-08T04:59:42.220Z,101532.59
2023-02-08T05:02:09.946Z,101531.22
2023-02-08T05:04:37.480Z,101540.44
2023-02-08T05:07:05.201Z,101543.13
2023-02-08T05:09:32.724Z,101544.03
2023-02-08T05:12:00.303Z,101544.66
2023-02-08T05:14:27.812Z,101539.56
2023-02-08T05:17:01.140Z,101553.56
2023-02-08T05:19:28.718Z,101548.25
2023-02-08T05:21:56.184Z,101560.13
2023-02-08T05:24:23.915Z,101570.75
2023-02-08T05:26:53.642Z,101567.88
2023-02-08T05:29:21.186Z,101567.16
2023-02-08T05:31:48.736Z,101579.47
2023-02-08T05:34:16.299Z,101589.97
2023-02-08T05:36:43.833Z,101590.88
2023-02-08T05:39:11.283Z,101599.31
2023-02-08T05:41:38.781Z,101599.03
2023-02-08T05:44:06.374Z,101605.72
2023-02-08T05:46:35.015Z,101604.00
2023-02-08T05:49:04.042Z,101613.91
2023-02-08T05:51:32.891Z,101608.75
2023-02-08T05:54:00.370Z,101605.59
2023-02-08T05:56:28.631Z,101618.78
2023-02-08T05:59:00.306Z,101624.75
2023-02-08T06:01:28.208Z,101615.06
2023-02-08T06:03:56.052Z,101621.59
2023-02-08T06:06:23.503Z,101620.16
2023-02-08T06:08:50.975Z,101627.06
2023-02-08T06:11:19.816Z,101630.06
2023-02-08T06:13:47.928Z,101632.97
2023-02-08T06:16:17.758Z,101634.06
2023-02-08T06:18:47.183Z,101642.34
2023-02-08T06:21:15.988Z,101637.84
2023-02-08T06:23:43.448Z,101630.03
2023-02-08T06:26:11.484Z,101639.41
2023-02-08T06:28:38.983Z,101635.38
2023-02-08T06:31:08.454Z,101632.94
2023-02-08T06:33:35.957Z,101639.09
2023-02-08T06:36:03.683Z,101641.94
2023-02-08T06:38:32.325Z,101644.75
2023-02-08T06:40:59.805Z,101643.41
2023-02-08T06:43:27.315Z,101643.41
2023-02-08T06:45:54.888Z,101650.19
2023-02-08T06:48:22.460Z,101650.38
2023-02-08T06:50:53.663Z,101654.03
2023-02-08T06:53:21.661Z,101656.84
2023-02-08T06:55:52.978Z,101656.84
2023-02-08T06:58:20.742Z,101646.94
2023-02-08T07:00:48.438Z,101657.09
2023-02-08T07:03:17.699Z,101651.72
2023-02-08T07:06:03.496Z,101659.72
2023-02-08T07:08:33.618Z,101660.25
2023-02-08T07:11:05.655Z,101667.13
2023-02-08T07:13:33.121Z,101668.22
2023-02-08T07:16:00.649Z,101674.34
2023-02-08T07:18:28.055Z,101684.03
2023-02-08T07:20:55.512Z,101690.59
2023-02-08T07:23:23.079Z,101691.41
2023-02-08T07:26:09.106Z,101689.69
2023-02-08T07:28:39.082Z,101687.31
2023-02-08T07:31:16.367Z,101691.00
2023-02-08T07:33:44.188Z,101683.81
2023-02-08T07:36:12.459Z,101699.09
2023-02-08T07:38:39.991Z,101693.69
2023-02-08T07:41:13.974Z,101694.06
2023-02-08T07:43:43.061Z,101701.22
2023-02-08T07:46:18.427Z,101697.34
2023-02-08T07:48:46.560Z,101686.34
2023-02-08T07:51:14.346Z,101697.13
2023-02-08T07:53:41.820Z,101690.56
2023-02-08T07:56:10.479Z,101687.44
2023-02-08T07:58:38.707Z,101687.66
2023-02-08T08:01:20.942Z,101694.94
2023-02-08T08:03:50.816Z,101690.59
2023-02-08T08:06:20.544Z,101698.16
2023-02-08T08:08:48.489Z,101691.44
2023-02-08T08:11:17.743Z,101687.31
2023-02-08T08:13:45.233Z,101687.53
2023-02-08T08:16:13.371Z,101693.59
2023-02-08T08:18:41.753Z,101686.75
2023-02-08T08:21:09.488Z,101692.03
2023-02-08T08:23:37.884Z,101696.66
2023-02-08T08:26:20.528Z,101701.69
2023-02-08T08:28:48.952Z,101698.06
2023-02-08T08:31:21.743Z,101696.75
2023-02-08T08:33:50.272Z,101705.50
2023-02-08T08:36:17.828Z,101700.16
2023-02-08T08:38:45.323Z,101694.22
2023-02-08T08:41:18.003Z,101710.78
2023-02-08T08:43:45.999Z,101705.19
2023-02-08T08:46:15.160Z,101707.38
2023-02-08T08:48:43.051Z,101713.34
2023-02-08T08:51:10.582Z,101711.38
2023-02-08T08:53:38.416Z,101718.75
2023-02-08T08:56:06.884Z,101717.97
2023-02-08T08:58:34.438Z,101717.97
2023-02-08T09:01:02.369Z,101723.03
2023-02-08T09:03:30.480Z,101724.31
2023-02-08T09:05:58.477Z,101726.94
2023-02-08T09:08:26.032Z,101723.88
2023-02-08T09:10:53.577Z,101732.41
2023-02-08T09:13:21.863Z,101730.63
2023-02-08T09:15:50.427Z,101725.50
2023-02-08T09:18:18.054Z,101735.69
2023-02-08T09:20:45.799Z,101735.84
2023-02-08T09:23:14.623Z,101736.50
2023-02-08T09:25:42.205Z,101746.78
2023-02-08T09:28:09.856Z,101741.97
2023-02-08T09:30:37.362Z,101744.84
2023-02-08T09:33:07.432Z,101744.72
2023-02-08T09:35:34.954Z,101742.44
2023-02-08T09:38:04.556Z,101742.88
2023-02-08T09:40:54.807Z,101737.50
2023-02-08T09:44:10.967Z,101735.66
2023-02-08T09:46:43.701Z,101729.13
2023-02-08T09:49:20.069Z,101728.88
2023-02-08T09:51:59.024Z,101729.56
2023-02-08T09:54:57.358Z,101723.22
2023-02-08T09:57:31.647Z,101711.47
2023-02-08T10:00:07.408Z,101719.91
2023-02-08T10:02:35.236Z,101725.69
2023-02-08T10:05:15.085Z,101719.28
2023-02-08T10:07:43.902Z,101716.59
2023-02-08T10:10:33.839Z,101710.38
2023-02-08T10:13:41.535Z,101704.03
2023-02-08T10:16:39.424Z,101710.84
2023-02-08T10:19:40.485Z,101698.16
2023-02-08T10:22:44.258Z,101699.13
2023-02-08T10:25:36.229Z,101700.31
2023-02-08T10:28:31.114Z,101699.66
2023-02-08T10:31:41.004Z,101696.50
2023-02-08T10:34:32.981Z,101691.63
2023-02-08T10:37:03.982Z,101694.53
2023-02-08T10:39:35.733Z,101688.78
2023-02-08T10:42:09.638Z,101685.06
2023-02-08T10:44:41.861Z,101690.41
2023-02-08T10:47:23.387Z,101684.81
2023-02-08T10:50:43.832Z,101678.75
2023-02-08T10:53:28.876Z,101688.22
2023-02-08T10:56:05.738Z,101690.81
2023-02-08T10:58:33.911Z,101684.63
2023-02-08T11:01:02.530Z,101683.91
2023-02-08T11:03:32.290Z,101687.56
2023-02-08T11:05:59.982Z,101683.66
2023-02-08T11:08:29.349Z,101687.81
2023-02-08T11:11:05.625Z,101682.13
2023-02-08T11:13:47.189Z,101684.63
2023-02-08T11:16:28.387Z,101686.66
2023-02-08T11:19:02.152Z,101690.75
2023-02-08T11:21:37.753Z,101686.72
2023-02-08T11:24:47.099Z,101691.59
2023-02-08T11:27:42.557Z,101684.59
2023-02-08T11:30:23.507Z,101686.53
2023-02-08T11:33:21.833Z,101675.34
2023-02-08T11:36:11.624Z,101673.94
2023-02-08T11:38:51.988Z,101668.34
2023-02-08T11:41:21.880Z,101671.03
2023-02-08T11:44:16.227Z,101677.47
2023-02-08T11:46:48.865Z,101674.25
2023-02-08T11:49:24.943Z,101664.81
2023-02-08T11:51:53.345Z,101663.69
2023-02-08T11:54:46.857Z,101666.53
2023-02-08T11:57:27.956Z,101666.16
2023-02-08T12:00:20.720Z,101667.16
2023-02-08T12:02:51.598Z,101668.41
2023-02-08T12:05:35.680Z,101672.66
2023-02-08T12:08:25.893Z,101675.34
2023-02-08T12:10:58.970Z,101663.25
2023-02-08T12:13:50.559Z,101659.75
2023-02-08T12:16:32.906Z,101666.31
2023-02-08T12:19:56.165Z,101668.53
2023-02-08T12:22:31.383Z,101669.78
2023-02-08T12:25:42.563Z,101669.66
2023-02-08T12:28:27.991Z,101667.06
2023-02-08T12:31:46.080Z,101667.34
2023-02-08T12:34:46.862Z,101667.47
2023-02-08T12:37:47.974Z,101661.75
2023-02-08T12:41:02.933Z,101664.66
2023-02-08T12:44:02.209Z,101670.16
2023-02-08T12:46:41.260Z,101676.91
2023-02-08T12:49:28.232Z,101665.66
2023-02-08T12:52:36.888Z,101678.47
2023-02-08T12:55:26.393Z,101668.91
2023-02-08T12:58:00.768Z,101674.94
2023-02-08T13:00:36.339Z,101670.75
2023-02-08T13:03:32.082Z,101667.22
2023-02-08T13:06:02.624Z,101670.72
2023-02-08T13:08:58.632Z,101668.75
2023-02-08T13:11:57.219Z,101667.22
2023-02-08T13:14:24.616Z,101661.03
2023-02-08T13:16:59.216Z,101663.41
2023-02-08T13:20:00.002Z,101665.72
2023-02-08T13:22:35.165Z,101665.75
2023-02-08T13:25:17.455Z,101675.91
2023-02-08T13:27:46.803Z,101673.31
2023-02-08T13:30:39.966Z,101672.38
2023-02-08T13:34:00.917Z,101678.97
2023-02-08T13:36:39.757Z,101676.44
2023-02-08T13:39:33.937Z,101686.50
2023-02-08T13:42:05.417Z,101681.00
2023-02-08T13:44:39.715Z,101684.78
2023-02-08T13:47:08.478Z,101683.31
2023-02-08T13:49:50.955Z,101684.69
2023-02-08T13:52:48.097Z,101691.44
2023-02-08T13:55:35.806Z,101684.88
2023-02-08T13:58:22.112Z,101682.47
2023-02-08T14:00:56.624Z,101689.03
2023-02-08T14:03:35.174Z,101687.97
2023-02-08T14:06:03.774Z,101684.53
2023-02-08T14:08:41.775Z,101688.09
2023-02-08T14:11:40.873Z,101687.31
2023-02-08T14:14:24.420Z,101684.84
2023-02-08T14:17:19.464Z,101682.81
2023-02-08T14:20:00.287Z,101681.94
2023-02-08T14:22:39.650Z,101682.69
2023-02-08T14:25:46.656Z,101689.06
2023-02-08T14:28:28.158Z,101683.72
2023-02-08T14:31:00.985Z,101683.03
2023-02-08T14:33:56.867Z,101690.06
2023-02-08T14:36:35.072Z,101690.81
2023-02-08T14:39:39.802Z,101688.34
2023-02-08T14:42:13.977Z,101696.94
2023-02-08T14:44:42.215Z,101695.66
2023-02-08T14:47:30.956Z,101694.50
2023-02-08T14:50:30.088Z,101697.72
2023-02-08T14:53:07.846Z,101702.31
2023-02-08T14:56:03.586Z,101703.34
2023-02-08T14:58:37.294Z,101709.28
2023-02-08T15:01:28.560Z,101711.56
2023-02-08T15:04:02.365Z,101715.13
2023-02-08T15:07:13.608Z,101711.34
2023-02-08T15:09:43.970Z,101720.31
2023-02-08T15:12:36.065Z,101720.84
2023-02-08T15:15:06.564Z,101724.44
2023-02-08T15:17:46.112Z,101723.97
2023-02-08T15:20:29.668Z,101737.06
2023-02-08T15:23:20.613Z,101737.16
2023-02-08T15:26:27.151Z,101731.84
2023-02-08T15:28:59.643Z,101742.25
2023-02-08T15:31:33.935Z,101749.88
2023-02-08T15:34:03.554Z,101739.94
2023-02-08T15:36:38.429Z,101743.38
2023-02-08T15:39:39.594Z,101746.00
2023-02-08T15:42:18.634Z,101742.16
2023-02-08T15:44:48.633Z,101737.25
2023-02-08T15:47:39.946Z,101739.28
2023-02-08T15:50:18.043Z,101745.63
2023-02-08T15:52:46.809Z,101745.06
2023-02-08T15:55:19.276Z,101742.44
2023-02-08T15:58:00.124Z,101738.28
2023-02-08T16:00:36.923Z,101742.06
2023-02-08T16:03:23.679Z,101743.06
2023-02-08T16:06:05.676Z,101749.25
2023-02-08T16:08:37.245Z,101743.66
2023-02-08T16:11:12.344Z,101745.63
2023-02-08T16:13:45.744Z,101753.63
2023-02-08T16:16:42.806Z,101748.81
2023-02-08T16:19:32.953Z,101752.81
2023-02-08T16:22:28.581Z,101747.56
2023-02-08T16:25:45.387Z,101752.16
2023-02-08T16:28:59.947Z,101765.06
2023-02-08T16:31:30.944Z,101758.72
2023-02-08T16:34:17.462Z,101760.81
2023-02-08T16:36:53.270Z,101768.28
2023-02-08T16:40:04.934Z,101764.44
2023-02-08T16:42:39.911Z,101763.25
2023-02-08T16:45:22.625Z,101771.03
2023-02-08T16:47:54.965Z,101774.63
2023-02-08T16:50:27.881Z,101778.19
2023-02-08T16:53:02.958Z,101779.56
2023-02-08T16:55:37.093Z,101776.50
2023-02-08T16:58:04.625Z,101781.13
2023-02-08T17:00:35.507Z,101785.63
2023-02-08T17:03:04.361Z,101779.00
2023-02-08T17:05:39.452Z,101781.28
2023-02-08T17:08:13.351Z,101780.94
2023-02-08T17:10:42.409Z,101784.72
2023-02-08T17:13:32.070Z,101797.00
2023-02-08T17:16:20.200Z,101796.78
2023-02-08T17:18:48.954Z,101793.09
2023-02-08T17:21:20.675Z,101795.47
2023-02-08T17:23:48.255Z,101804.69
2023-02-08T17:26:20.356Z,101797.81
2023-02-08T17:28:50.280Z,101809.50
2023-02-08T17:31:19.175Z,101811.53
2023-02-08T17:33:48.527Z,101809.34
2023-02-08T17:36:19.135Z,101809.13
2023-02-08T17:38:49.270Z,101807.09
2023-02-08T17:41:20.454Z,101808.59
2023-02-08T17:43:54.337Z,101819.56
2023-02-08T17:46:25.704Z,101811.41
2023-02-08T17:48:59.463Z,101814.00
2023-02-08T17:51:30.481Z,101820.94
2023-02-08T17:53:59.512Z,101828.94
2023-02-08T17:56:29.450Z,101815.69
2023-02-08T17:59:05.628Z,101822.09
2023-02-08T18:01:33.600Z,101822.88
2023-02-08T18:04:10.383Z,101815.31
2023-02-08T18:06:38.447Z,101810.09
2023-02-08T18:09:06.433Z,101814.63
2023-02-08T18:11:35.690Z,101813.03
2023-02-08T18:14:08.280Z,101815.63
2023-02-08T18:16:37.606Z,101810.91
2023-02-08T18:19:06.756Z,101824.84
2023-02-08T18:21:37.580Z,101823.75
2023-02-08T18:24:10.338Z,101833.16
2023-02-08T18:26:43.699Z,101838.91
2023-02-08T18:29:13.943Z,101840.22
2023-02-08T18:31:44.660Z,101837.00
2023-02-08T18:34:16.741Z,101849.00
2023-02-08T18:37:10.823Z,101837.84
2023-02-08T18:39:40.091Z,101839.06
2023-02-08T18:42:08.090Z,101841.59
2023-02-08T18:44:38.885Z,101845.34
2023-02-08T18:47:09.508Z,101839.34
2023-02-08T18:49:43.515Z,101850.41
2023-02-08T18:52:20.388Z,101846.50
2023-02-08T18:54:51.544Z,101858.38
2023-02-08T18:57:21.215Z,101845.81
2023-02-08T18:59:50.090Z,101855.75
2023-02-08T19:02:23.451Z,101854.13
2023-02-08T19:04:51.744Z,101862.34
2023-02-08T19:07:26.873Z,101860.63
2023-02-08T19:09:55.223Z,101864.41
2023-02-08T19:12:27.422Z,101859.19
2023-02-08T19:14:56.429Z,101866.25
2023-02-08T19:17:24.495Z,101868.81
2023-02-08T19:19:55.544Z,101865.41
2023-02-08T19:22:25.906Z,101860.06
2023-02-08T19:25:19.694Z,101867.97
2023-02-08T19:27:59.641Z,101876.16
2023-02-08T19:30:34.881Z,101873.84
2023-02-08T19:33:03.618Z,101875.66
2023-02-08T19:35:40.579Z,101873.84
2023-02-08T19:38:10.127Z,101880.84
2023-02-08T19:40:39.840Z,101872.53
2023-02-08T19:43:09.923Z,101876.44
2023-02-08T19:45:44.936Z,101876.34
2023-02-08T19:48:15.405Z,101881.63
2023-02-08T19:50:56.963Z,101883.28
2023-02-08T19:53:25.008Z,101878.88
2023-02-08T19:56:17.831Z,101879.63
2023-02-08T19:58:48.516Z,101888.03
2023-02-08T20:01:37.312Z,101887.41
2023-02-08T20:04:07.090Z,101894.53
2023-02-08T20:06:39.282Z,101893.66
2023-02-08T20:09:12.070Z,101895.75
2023-02-08T20:11:55.875Z,101904.69
2023-02-08T20:14:27.990Z,101894.44
2023-02-08T20:16:55.695Z,101902.50
2023-02-08T20:19:23.389Z,101899.22
2023-02-08T20:21:52.762Z,101914.84
2023-02-08T20:24:42.588Z,101904.94
2023-02-08T20:27:10.552Z,101895.44
2023-02-08T20:29:42.765Z,101906.34
2023-02-08T20:32:13.734Z,101896.72
2023-02-08T20:34:53.941Z,101902.88
2023-02-08T20:37:26.266Z,101904.78
2023-02-08T20:39:53.872Z,101902.38
2023-02-08T20:42:22.224Z,101909.84
2023-02-08T20:44:50.075Z,101906.09
2023-02-08T20:47:21.823Z,101908.72
2023-02-08T20:49:51.640Z,101904.72
2023-02-08T20:52:22.534Z,101905.19
2023-02-08T20:54:54.352Z,101904.56
2023-02-08T20:57:22.147Z,101911.03
2023-02-08T20:59:53.427Z,101915.22
2023-02-08T21:02:23.429Z,101911.97
2023-02-08T21:04:53.160Z,101916.88
2023-02-08T21:07:20.987Z,101922.56
2023-02-08T21:09:48.785Z,101912.59
2023-02-08T21:12:38.288Z,101918.88
2023-02-08T21:15:09.736Z,101910.44
2023-02-08T21:17:40.864Z,101916.44
2023-02-08T21:20:10.924Z,101913.59
2023-02-08T21:22:43.317Z,101924.09
2023-02-08T21:25:12.233Z,101921.69
2023-02-08T21:27:42.151Z,101933.13
2023-02-08T21:30:11.846Z,101929.66
2023-02-08T21:32:46.309Z,101929.66
2023-02-08T21:35:15.103Z,101928.34
2023-02-08T21:37:44.087Z,101931.19
2023-02-08T21:40:31.877Z,101950.84
2023-02-08T21:43:19.487Z,101942.66
2023-02-08T21:45:48.383Z,101950.41
2023-02-08T21:48:37.175Z,101943.78
2023-02-08T21:51:25.707Z,101939.97
2023-02-08T21:54:13.656Z,101947.34
2023-02-08T21:56:43.119Z,101954.56
2023-02-08T21:59:11.804Z,101958.09
2023-02-08T22:01:41.635Z,101951.38
2023-02-08T22:04:10.762Z,101957.47
2023-02-08T22:06:38.301Z,101958.13
2023-02-08T22:09:06.732Z,101959.84
2023-02-08T22:11:34.207Z,101957.97
2023-02-08T22:14:03.292Z,101952.16
2023-02-08T22:16:33.111Z,101956.91
2023-02-08T22:19:02.140Z,101956.19
2023-02-08T22:21:29.784Z,101962.09
2023-02-08T22:23:57.592Z,101961.78
2023-02-08T22:26:25.747Z,101968.88
2023-02-08T22:28:53.974Z,101964.69
2023-02-08T22:31:23.503Z,101964.03
2023-02-08T22:33:53.917Z,101960.50
2023-02-08T22:36:22.383Z,101955.72
2023-02-08T22:38:49.966Z,101955.69
2023-02-08T22:41:18.257Z,101964.34
2023-02-08T22:43:46.771Z,101963.38
2023-02-08T22:46:18.570Z,101965.63
2023-02-08T22:48:47.198Z,101964.19
2023-02-08T22:51:18.994Z,101971.09
2023-02-08T22:53:52.282Z,101967.56
2023-02-08T22:56:20.223Z,101965.31
2023-02-08T22:58:49.952Z,101965.66
2023-02-08T23:01:25.268Z,101969.97
2023-02-08T23:03:55.115Z,101968.84
2023-02-08T23:06:24.289Z,101968.38
2023-02-08T23:08:51.899Z,101966.91
2023-02-08T23:11:21.676Z,101967.88
2023-02-08T23:13:49.255Z,101974.50
2023-02-08T23:16:19.141Z,101974.66
2023-02-08T23:18:47.145Z,101969.97
2023-02-08T23:21:20.334Z,101969.47
2023-02-08T23:23:49.136Z,101962.91
2023-02-08T23:26:19.840Z,101977.72
2023-02-08T23:28:50.835Z,101965.16
2023-02-08T23:31:18.953Z,101968.88
2023-02-08T23:33:47.185Z,101965.34
2023-02-08T23:36:18.444Z,101966.47
2023-02-08T23:38:46.505Z,101965.50
2023-02-08T23:41:20.853Z,101972.41
2023-02-08T23:43:51.575Z,101963.41
2023-02-08T23:46:24.189Z,101966.94
2023-02-08T23:48:52.381Z,101964.03
2023-02-08T23:51:22.532Z,101970.63
2023-02-08T23:53:55.268Z,101969.81
2023-02-08T23:56:32.453Z,101963.25
2023-02-08T23:59:00.999Z,101965.00
